Fallon, NV

8:22 PM PDT on September 26, 2016 (GMT -0700)
North Fallon-Rice Rd | | Change Station

Elev 3980 ft 39.50 °N, 118.78 °W | Updated 19 seconds ago

Clear
Clear
64.9 °F
Feels Like 64.9 °F
N
0.0
Wind Variable Wind from North
Gusts 0.0 mph

Today
High -- | Low -- °F
--% Chance of Precip.
Yesterday
High -- | Low -- °F
Precip. -- in
Pressure 30.03 in
Visibility 10.0 miles
Clouds Clear
Dew Point 39 °F
Humidity 38%
Rainfall 0.00 in
Snow Depth Not available.
6:47 AM 6:44 PM
Waning Crescent, 14% visible
METAR KNFL 270256Z 35005KT 10SM CLR 19/01 A3013 RMK AO2 SLP168 T01940006 55002
Pressure 30.03 in
Visibility 10.0 miles
Clouds Clear
Dew Point 39 °F
Humidity 38%
Rainfall 0.00 in
Snow Depth Not available.
6:47 AM 6:44 PM
Waning Crescent, 14% visible
METAR KNFL 270256Z 35005KT 10SM CLR 19/01 A3013 RMK AO2 SLP168 T01940006 55002

10-Day Weather Forecast

Almanac

Astronomy

Sep. 26, 2016 Rise Set
Actual Time
Civil Twilight
Nautical Twilight
Astronomical Twilight
Moon
Length of Visible Light
Length of Day
Tomorrow will be .
, % of the Moon is Illuminated

Today's Extremes

State Highs State Lows

Community

WunderPhotos

Upload Photos

1,942,028 photos uploaded!

WunderBlog® & News

Nearby

Air Quality

  Air Quality AQ Index Pollutant
Not available.

Snow Depth

Station Depth Elevation

Earthquake Activity

City Distance Mag. Time & Date
Minimum magnitude displayed is 2.5.

Coastal Water Temperatures

Place Temperature

Stations

Nearby Weather Stations

Station Location Temp. Windchill Dew Point Humidity Wind Precip. Elev Updated Type
                   

Watches & Warnings

There are currently no watches in effect.